createdAt,value
2018-06-21T00:00:10.554Z,101031.80
2018-06-21T00:02:37.691Z,101035.44
2018-06-21T00:05:04.723Z,101034.27
2018-06-21T00:07:31.659Z,101035.24
2018-06-21T00:09:58.698Z,101032.55
2018-06-21T00:12:25.654Z,101033.86
2018-06-21T00:14:52.663Z,101031.80
2018-06-21T00:17:19.672Z,101029.45
2018-06-21T00:19:46.610Z,101030.11
2018-06-21T00:22:13.548Z,101024.25
2018-06-21T00:24:40.456Z,101026.03
2018-06-21T00:27:07.419Z,101015.55
2018-06-21T00:29:34.330Z,101018.54
2018-06-21T00:32:01.268Z,101011.41
2018-06-21T00:34:28.203Z,101015.55
2018-06-21T00:36:55.115Z,101004.92
2018-06-21T00:39:22.091Z,101000.64
2018-06-21T00:41:49.118Z,100996.16
2018-06-21T00:44:16.015Z,100980.22
2018-06-21T00:46:42.919Z,100973.72
2018-06-21T00:49:09.874Z,100969.55
2018-06-21T00:51:37.019Z,100970.38
2018-06-21T00:54:04.205Z,100968.86
2018-06-21T00:56:31.146Z,100962.71
2018-06-21T00:58:58.066Z,100955.79
2018-06-21T01:01:25.050Z,100956.03
2018-06-21T01:03:51.983Z,100953.23
2018-06-21T01:06:18.913Z,100953.59
2018-06-21T01:08:45.863Z,100949.92
2018-06-21T01:11:13.143Z,100948.45
2018-06-21T01:13:40.170Z,100947.32
2018-06-21T01:16:07.086Z,100939.52
2018-06-21T01:18:34.359Z,100934.90
2018-06-21T01:21:01.319Z,100941.05
2018-06-21T01:23:28.301Z,100936.62
2018-06-21T01:25:55.207Z,100929.34
2018-06-21T01:28:22.243Z,100926.55
2018-06-21T01:30:49.212Z,100927.73
2018-06-21T01:33:16.129Z,100923.91
2018-06-21T01:35:43.135Z,100917.97
2018-06-21T01:38:10.060Z,100917.82
2018-06-21T01:40:36.975Z,100912.20
2018-06-21T01:43:03.994Z,100907.25
2018-06-21T01:45:30.931Z,100909.77
2018-06-21T01:47:57.975Z,100906.47
2018-06-21T01:50:24.940Z,100903.00
2018-06-21T01:52:51.907Z,100901.52
2018-06-21T01:55:19.331Z,100899.75
2018-06-21T01:57:46.235Z,100893.47
2018-06-21T02:00:13.188Z,100895.28
2018-06-21T02:02:40.143Z,100896.31
2018-06-21T02:05:07.066Z,100885.70
2018-06-21T02:07:33.983Z,100887.19
2018-06-21T02:10:00.935Z,100880.25
2018-06-21T02:12:28.055Z,100870.13
2018-06-21T02:14:55.012Z,100866.64
2018-06-21T02:17:22.055Z,100859.87
2018-06-21T02:19:49.030Z,100869.01
2018-06-21T02:22:15.984Z,100859.42
2018-06-21T02:24:42.919Z,100862.07
2018-06-21T02:27:09.842Z,100852.78
2018-06-21T02:29:36.763Z,100847.98
2018-06-21T02:32:03.735Z,100845.97
2018-06-21T02:34:30.655Z,100843.66
2018-06-21T02:36:57.580Z,100840.70
2018-06-21T02:39:24.516Z,100834.38
2018-06-21T02:41:51.434Z,100832.22
2018-06-21T02:44:18.390Z,100833.39
2018-06-21T02:46:45.435Z,100826.75
2018-06-21T02:49:12.692Z,100822.78
2018-06-21T02:51:39.636Z,100818.41
2018-06-21T02:54:06.587Z,100815.60
2018-06-21T02:56:33.527Z,100812.45
2018-06-21T02:59:00.475Z,100810.44
2018-06-21T03:01:27.388Z,100807.09
2018-06-21T03:03:54.927Z,100798.14
2018-06-21T03:06:21.759Z,100803.59
2018-06-21T03:08:48.872Z,100799.42
2018-06-21T03:11:15.796Z,100799.56
2018-06-21T03:13:42.727Z,100786.93
2018-06-21T03:16:09.659Z,100778.28
2018-06-21T03:18:36.571Z,100780.77
2018-06-21T03:21:03.499Z,100780.44
2018-06-21T03:23:30.448Z,100783.86
2018-06-21T03:25:57.392Z,100778.56
2018-06-21T03:28:24.379Z,100786.36
2018-06-21T03:30:51.460Z,100783.02
2018-06-21T03:33:18.382Z,100775.88
2018-06-21T03:35:45.667Z,100777.20
2018-06-21T03:38:12.655Z,100776.71
2018-06-21T03:40:39.615Z,100781.69
2018-06-21T03:43:06.527Z,100773.53
2018-06-21T03:45:33.487Z,100784.84
2018-06-21T03:48:00.426Z,100781.69
2018-06-21T03:50:27.395Z,100790.00
2018-06-21T03:52:54.299Z,100800.17
2018-06-21T03:55:21.303Z,100813.18
2018-06-21T03:57:48.204Z,100807.36
2018-06-21T04:00:15.131Z,100790.87
2018-06-21T04:02:42.061Z,100781.34
2018-06-21T04:05:09.059Z,100788.16
2018-06-21T04:07:35.990Z,100783.59
2018-06-21T04:10:03.011Z,100775.70
2018-06-21T04:12:29.955Z,100783.65
2018-06-21T04:15:00.200Z,100775.55
2018-06-21T04:17:27.527Z,100775.55
2018-06-21T04:19:54.427Z,100779.18
2018-06-21T04:22:21.339Z,100771.87
2018-06-21T04:24:48.259Z,100769.22
2018-06-21T04:27:15.171Z,100764.27
2018-06-21T04:29:42.170Z,100756.84
2018-06-21T04:32:09.119Z,100758.08
2018-06-21T04:34:36.118Z,100744.05
2018-06-21T04:37:03.062Z,100744.73
2018-06-21T04:39:30.032Z,100752.38
2018-06-21T04:41:57.255Z,100755.53
2018-06-21T04:44:24.264Z,100737.52
2018-06-21T04:46:51.156Z,100720.78
2018-06-21T04:49:18.099Z,100716.47
2018-06-21T04:51:45.027Z,100709.34
2018-06-21T04:54:12.163Z,100717.75
2018-06-21T04:56:39.771Z,100721.42
2018-06-21T04:59:06.687Z,100720.84
2018-06-21T05:01:33.627Z,100726.90
2018-06-21T05:04:00.552Z,100735.19
2018-06-21T05:06:27.779Z,100734.89
2018-06-21T05:08:54.738Z,100745.71
2018-06-21T05:11:22.263Z,100753.72
2018-06-21T05:13:49.259Z,100738.36
2018-06-21T05:16:16.251Z,100746.66
2018-06-21T05:18:43.188Z,100754.94
2018-06-21T05:21:10.103Z,100755.95
2018-06-21T05:23:37.790Z,100761.25
2018-06-21T05:26:04.910Z,100761.80
2018-06-21T05:28:31.897Z,100760.48
2018-06-21T05:30:58.860Z,100767.92
2018-06-21T05:33:25.769Z,100767.27
2018-06-21T05:35:52.731Z,100767.78
2018-06-21T05:38:19.655Z,100772.25
2018-06-21T05:40:46.643Z,100780.16
2018-06-21T05:43:13.593Z,100784.11
2018-06-21T05:45:40.527Z,100765.94
2018-06-21T05:48:07.479Z,100764.28
2018-06-21T05:50:34.739Z,100768.28
2018-06-21T05:53:01.840Z,100774.72
2018-06-21T05:55:29.939Z,100779.86
2018-06-21T05:57:56.886Z,100770.62
2018-06-21T06:00:23.823Z,100770.43
2018-06-21T06:02:50.972Z,100766.66
2018-06-21T06:05:18.115Z,100765.33
2018-06-21T06:07:45.028Z,100760.73
2018-06-21T06:10:12.020Z,100754.42
2018-06-21T06:12:38.931Z,100751.09
2018-06-21T06:15:05.891Z,100749.31
2018-06-21T06:17:32.891Z,100733.62
2018-06-21T06:20:00.755Z,100736.92
2018-06-21T06:22:27.723Z,100737.06
2018-06-21T06:24:54.656Z,100742.84
2018-06-21T06:27:21.587Z,100738.69
2018-06-21T06:29:48.523Z,100751.24
2018-06-21T06:32:15.623Z,100753.89
2018-06-21T06:34:42.633Z,100762.65
2018-06-21T06:37:09.714Z,100776.36
2018-06-21T06:39:36.650Z,100769.75
2018-06-21T06:42:03.575Z,100758.35
2018-06-21T06:44:30.567Z,100761.33
2018-06-21T06:46:57.507Z,100775.56
2018-06-21T06:49:24.459Z,100775.06
2018-06-21T06:51:51.431Z,100786.45
2018-06-21T06:54:18.387Z,100782.00
2018-06-21T06:56:45.315Z,100790.61
2018-06-21T06:59:12.244Z,100794.06
2018-06-21T07:01:39.183Z,100793.06
2018-06-21T07:04:06.183Z,100784.82
2018-06-21T07:06:33.236Z,100773.20
2018-06-21T07:09:00.175Z,100769.91
2018-06-21T07:11:27.976Z,100760.34
2018-06-21T07:13:55.655Z,100749.78
2018-06-21T07:16:22.994Z,100736.73
2018-06-21T07:18:49.976Z,100733.38
2018-06-21T07:21:16.904Z,100746.69
2018-06-21T07:23:43.879Z,100747.38
2018-06-21T07:26:10.824Z,100753.02
2018-06-21T07:28:37.787Z,100771.53
2018-06-21T07:31:04.935Z,100785.73
2018-06-21T07:33:31.928Z,100782.77
2018-06-21T07:35:58.861Z,100775.67
2018-06-21T07:38:25.801Z,100770.72
2018-06-21T07:40:52.720Z,100776.64
2018-06-21T07:43:19.635Z,100779.94
2018-06-21T07:45:46.539Z,100775.80
2018-06-21T07:48:13.487Z,100769.95
2018-06-21T07:50:40.459Z,100764.95
2018-06-21T07:53:07.387Z,100749.53
2018-06-21T07:55:34.303Z,100764.09
2018-06-21T07:58:01.267Z,100768.36
2018-06-21T08:00:28.211Z,100768.48
2018-06-21T08:02:55.148Z,100770.30
2018-06-21T08:05:22.143Z,100765.49
2018-06-21T08:07:49.126Z,100762.50
2018-06-21T08:10:16.334Z,100738.44
2018-06-21T08:12:43.571Z,100718.52
2018-06-21T08:15:10.494Z,100732.45
2018-06-21T08:17:37.892Z,100752.13
2018-06-21T08:20:04.898Z,100760.91
2018-06-21T08:22:31.929Z,100767.46
2018-06-21T08:24:58.843Z,100770.08
2018-06-21T08:27:25.779Z,100767.42
2018-06-21T08:29:52.878Z,100767.42
2018-06-21T08:32:19.855Z,100768.26
2018-06-21T08:34:47.122Z,100764.77
2018-06-21T08:37:14.060Z,100757.43
2018-06-21T08:39:41.003Z,100757.72
2018-06-21T08:42:07.959Z,100756.80
2018-06-21T08:44:34.927Z,100752.73
2018-06-21T08:47:02.559Z,100754.68
2018-06-21T08:49:29.491Z,100755.17
2018-06-21T08:51:56.455Z,100759.00
2018-06-21T08:54:23.395Z,100757.23
2018-06-21T08:56:50.315Z,100753.31
2018-06-21T08:59:17.256Z,100762.79
2018-06-21T09:01:44.179Z,100770.39
2018-06-21T09:04:11.187Z,100765.48
2018-06-21T09:06:38.127Z,100762.23
2018-06-21T09:09:07.119Z,100764.11
2018-06-21T09:11:34.195Z,100766.09
2018-06-21T09:14:01.179Z,100766.19
2018-06-21T09:16:28.115Z,100758.63
2018-06-21T09:18:55.087Z,100761.50
2018-06-21T09:21:22.071Z,100758.91
2018-06-21T09:23:49.066Z,100764.01
2018-06-21T09:26:15.975Z,100762.83
2018-06-21T09:28:43.049Z,100768.02
2018-06-21T09:31:09.975Z,100767.61
2018-06-21T09:33:37.159Z,100764.76
2018-06-21T09:36:04.271Z,100763.89
2018-06-21T09:38:36.832Z,100769.23
2018-06-21T09:41:09.619Z,100771.97
2018-06-21T09:43:50.300Z,100768.75
2018-06-21T09:46:14.985Z,100775.33
2018-06-21T09:48:49.355Z,100771.29
2018-06-21T09:51:17.071Z,100766.75
2018-06-21T09:53:44.023Z,100769.59
2018-06-21T09:56:10.951Z,100775.73
2018-06-21T09:58:37.995Z,100780.97
2018-06-21T10:01:04.943Z,100776.23
2018-06-21T10:03:32.656Z,100778.73
2018-06-21T10:05:59.640Z,100776.16
2018-06-21T10:08:26.767Z,100769.52
2018-06-21T10:10:53.712Z,100776.11
2018-06-21T10:13:20.643Z,100777.61
2018-06-21T10:15:47.645Z,100769.17
2018-06-21T10:18:14.655Z,100776.20
2018-06-21T10:20:41.891Z,100785.50
2018-06-21T10:23:08.855Z,100843.80
2018-06-21T10:25:35.966Z,100866.69
2018-06-21T10:28:03.166Z,100900.98
2018-06-21T10:30:30.163Z,100883.30
2018-06-21T10:32:57.087Z,100887.13
2018-06-21T10:35:24.015Z,100889.81
2018-06-21T10:37:51.063Z,100884.75
2018-06-21T10:40:18.011Z,100876.99
2018-06-21T10:42:45.004Z,100871.27
2018-06-21T10:45:12.075Z,100867.49
2018-06-21T10:47:38.999Z,100869.95
2018-06-21T10:50:06.059Z,100870.63
2018-06-21T10:52:33.228Z,100871.53
2018-06-21T10:55:00.267Z,100874.23
2018-06-21T10:57:27.191Z,100873.80
2018-06-21T10:59:54.226Z,100878.11
2018-06-21T11:02:21.215Z,100862.62
2018-06-21T11:04:48.151Z,100856.02
2018-06-21T11:07:15.065Z,100841.36
2018-06-21T11:09:42.031Z,100848.80
2018-06-21T11:12:08.951Z,100846.47
2018-06-21T11:14:35.895Z,100857.87
2018-06-21T11:17:03.032Z,100840.98
2018-06-21T11:19:29.947Z,100866.86
2018-06-21T11:21:57.239Z,100880.72
2018-06-21T11:24:24.198Z,100875.92
2018-06-21T11:26:51.247Z,100884.66
2018-06-21T11:29:18.171Z,100888.40
2018-06-21T11:31:45.148Z,100901.23
2018-06-21T11:34:12.211Z,100925.17
2018-06-21T11:36:39.247Z,100925.41
2018-06-21T11:39:07.403Z,100938.28
2018-06-21T11:41:34.443Z,100930.18
2018-06-21T11:44:01.359Z,100927.36
2018-06-21T11:46:28.319Z,100909.95
2018-06-21T11:48:55.251Z,100909.93
2018-06-21T11:51:22.331Z,100918.47
2018-06-21T11:53:49.271Z,100913.00
2018-06-21T11:56:16.196Z,100920.70
2018-06-21T11:58:43.123Z,100916.31
2018-06-21T12:01:10.536Z,100911.33
2018-06-21T12:03:37.471Z,100915.53
2018-06-21T12:06:04.518Z,100911.57
2018-06-21T12:08:31.436Z,100917.52
2018-06-21T12:10:58.422Z,100913.55
2018-06-21T12:13:25.339Z,100921.41
2018-06-21T12:15:52.572Z,100929.57
2018-06-21T12:18:19.515Z,100931.06
2018-06-21T12:20:46.464Z,100924.95
2018-06-21T12:23:13.378Z,100935.39
2018-06-21T12:25:40.503Z,100940.84
2018-06-21T12:28:07.411Z,100939.85
2018-06-21T12:30:34.420Z,100944.65
2018-06-21T12:33:01.422Z,100947.30
2018-06-21T12:35:28.431Z,100948.28
2018-06-21T12:37:55.384Z,100957.70
2018-06-21T12:40:22.578Z,100956.70
2018-06-21T12:42:49.507Z,100956.88
2018-06-21T12:45:16.407Z,100962.34
2018-06-21T12:47:43.395Z,100957.37
2018-06-21T12:50:10.327Z,100962.18
2018-06-21T12:52:37.249Z,100983.78
2018-06-21T12:55:04.239Z,100995.10
2018-06-21T12:57:31.176Z,100997.22
2018-06-21T12:59:58.127Z,100995.82
2018-06-21T13:02:25.074Z,101010.58
2018-06-21T13:04:52.091Z,100996.39
2018-06-21T13:07:19.019Z,101004.73
2018-06-21T13:09:57.463Z,101000.53
2018-06-21T13:12:36.999Z,101003.69
2018-06-21T13:15:04.551Z,101028.48
2018-06-21T13:17:31.844Z,101032.47
2018-06-21T13:19:59.931Z,101031.98
2018-06-21T13:22:27.253Z,101041.54
2018-06-21T13:24:54.174Z,101045.40
2018-06-21T13:27:21.392Z,101046.12
2018-06-21T13:29:48.437Z,101066.06
2018-06-21T13:32:15.479Z,101059.84
2018-06-21T13:34:42.394Z,101069.07
2018-06-21T13:37:09.385Z,101055.66
2018-06-21T13:39:36.319Z,101065.81
2018-06-21T13:42:03.757Z,101067.73
2018-06-21T13:44:30.899Z,101074.09
2018-06-21T13:46:57.896Z,101078.58
2018-06-21T13:49:24.927Z,101084.03
2018-06-21T13:51:51.943Z,101075.44
2018-06-21T13:54:18.866Z,101082.83
2018-06-21T13:56:46.971Z,101089.90
2018-06-21T13:59:14.271Z,101108.58
2018-06-21T14:01:41.176Z,101113.69
2018-06-21T14:04:08.615Z,101114.13
2018-06-21T14:06:35.801Z,101127.83
2018-06-21T14:09:04.146Z,101141.53
2018-06-21T14:11:31.111Z,101136.95
2018-06-21T14:13:58.035Z,101143.25
2018-06-21T14:16:25.604Z,101138.59
2018-06-21T14:18:52.863Z,101143.61
2018-06-21T14:21:20.722Z,101145.73
2018-06-21T14:23:47.752Z,101139.03
2018-06-21T14:26:14.769Z,101142.73
2018-06-21T14:28:41.744Z,101149.92
2018-06-21T14:31:08.678Z,101143.17
2018-06-21T14:33:35.603Z,101141.25
2018-06-21T14:36:02.520Z,101142.73
2018-06-21T14:38:29.479Z,101149.66
2018-06-21T14:40:56.423Z,101147.36
2018-06-21T14:43:23.379Z,101162.42
2018-06-21T14:45:50.375Z,101167.53
2018-06-21T14:48:17.331Z,101184.53
2018-06-21T14:50:44.302Z,101177.42
2018-06-21T14:53:11.316Z,101182.77
2018-06-21T14:55:38.215Z,101182.96
2018-06-21T14:58:05.155Z,101179.16
2018-06-21T15:00:32.078Z,101182.11
2018-06-21T15:02:59.032Z,101188.01
2018-06-21T15:05:26.068Z,101184.42
2018-06-21T15:07:53.024Z,101180.52
2018-06-21T15:10:19.951Z,101183.17
2018-06-21T15:12:46.888Z,101180.85
2018-06-21T15:15:13.831Z,101174.97
2018-06-21T15:17:40.769Z,101173.91
2018-06-21T15:20:07.739Z,101189.62
2018-06-21T15:22:34.678Z,101191.11
2018-06-21T15:25:01.814Z,101189.70
2018-06-21T15:27:28.796Z,101201.53
2018-06-21T15:29:55.743Z,101203.88
2018-06-21T15:32:22.680Z,101205.46
2018-06-21T15:34:49.603Z,101205.23
2018-06-21T15:37:16.537Z,101212.42
2018-06-21T15:39:43.467Z,101214.35
2018-06-21T15:42:10.527Z,101208.76
2018-06-21T15:44:37.459Z,101220.09
2018-06-21T15:47:04.411Z,101210.47
2018-06-21T15:49:31.331Z,101212.69
2018-06-21T15:51:58.295Z,101216.78
2018-06-21T15:54:25.198Z,101218.33
2018-06-21T15:56:52.224Z,101222.48
2018-06-21T15:59:19.168Z,101216.56
2018-06-21T16:01:46.079Z,101220.36
2018-06-21T16:04:13.067Z,101226.14
2018-06-21T16:06:39.986Z,101233.94
2018-06-21T16:09:08.071Z,101232.27
2018-06-21T16:11:34.983Z,101246.75
2018-06-21T16:14:02.075Z,101238.70
2018-06-21T16:16:29.126Z,101235.36
2018-06-21T16:18:56.048Z,101253.41
2018-06-21T16:21:22.967Z,101255.73
2018-06-21T16:23:49.892Z,101259.74
2018-06-21T16:26:16.931Z,101254.00
2018-06-21T16:28:43.979Z,101256.01
2018-06-21T16:31:10.906Z,101272.36
2018-06-21T16:33:37.888Z,101276.75
2018-06-21T16:36:05.175Z,101283.85
2018-06-21T16:38:32.236Z,101282.81
2018-06-21T16:40:59.353Z,101303.19
2018-06-21T16:43:26.287Z,101291.77
2018-06-21T16:45:53.291Z,101293.53
2018-06-21T16:48:20.327Z,101305.23
2018-06-21T16:50:48.147Z,101298.97
2018-06-21T16:53:15.129Z,101290.45
2018-06-21T16:55:42.381Z,101281.28
2018-06-21T16:58:09.415Z,101285.45
2018-06-21T17:00:36.360Z,101285.03
2018-06-21T17:03:03.363Z,101268.73
2018-06-21T17:05:30.286Z,101274.15
2018-06-21T17:07:57.223Z,101266.20
2018-06-21T17:10:24.190Z,101270.54
2018-06-21T17:12:51.131Z,101275.56
2018-06-21T17:15:18.056Z,101276.11
2018-06-21T17:17:45.024Z,101263.20
2018-06-21T17:20:12.012Z,101277.34
2018-06-21T17:22:38.927Z,101278.08
2018-06-21T17:25:06.057Z,101268.32
2018-06-21T17:27:33.043Z,101278.11
2018-06-21T17:30:00.483Z,101271.59
2018-06-21T17:32:27.408Z,101277.70
2018-06-21T17:34:54.337Z,101277.02
2018-06-21T17:37:21.318Z,101273.03
2018-06-21T17:39:48.370Z,101272.59
2018-06-21T17:42:15.278Z,101274.64
2018-06-21T17:44:42.248Z,101278.17
2018-06-21T17:47:09.299Z,101290.99
2018-06-21T17:49:36.245Z,101278.25
2018-06-21T17:52:03.207Z,101280.53
2018-06-21T17:54:30.138Z,101283.17
2018-06-21T17:56:57.076Z,101283.89
2018-06-21T17:59:24.003Z,101286.23
2018-06-21T18:01:50.927Z,101288.88
2018-06-21T18:04:17.895Z,101295.56
2018-06-21T18:06:44.819Z,101299.59
2018-06-21T18:09:11.743Z,101281.84
2018-06-21T18:11:38.635Z,101287.69
2018-06-21T18:14:05.616Z,101288.83
2018-06-21T18:16:32.551Z,101293.52
2018-06-21T18:18:59.479Z,101296.95
2018-06-21T18:21:26.375Z,101295.98
2018-06-21T18:23:53.303Z,101300.38
2018-06-21T18:26:20.267Z,101299.01
2018-06-21T18:28:47.265Z,101294.44
2018-06-21T18:31:14.274Z,101298.30
2018-06-21T18:33:41.207Z,101303.46
2018-06-21T18:36:08.135Z,101310.23
2018-06-21T18:38:35.044Z,101309.16
2018-06-21T18:41:01.983Z,101302.75
2018-06-21T18:43:28.903Z,101309.65
2018-06-21T18:45:55.853Z,101317.14
2018-06-21T18:48:23.195Z,101316.45
2018-06-21T18:50:50.171Z,101321.67
2018-06-21T18:53:17.201Z,101320.47
2018-06-21T18:55:44.526Z,101315.05
2018-06-21T18:58:11.443Z,101313.87
2018-06-21T19:00:38.380Z,101317.03
2018-06-21T19:03:05.424Z,101322.06
2018-06-21T19:05:32.375Z,101329.82
2018-06-21T19:08:04.954Z,101326.83
2018-06-21T19:10:37.783Z,101325.19
2018-06-21T19:13:04.631Z,101319.19
2018-06-21T19:15:31.600Z,101328.27
2018-06-21T19:17:58.532Z,101323.38
2018-06-21T19:20:25.454Z,101324.53
2018-06-21T19:22:52.371Z,101326.95
2018-06-21T19:25:19.306Z,101334.79
2018-06-21T19:27:46.583Z,101339.92
2018-06-21T19:30:13.515Z,101333.44
2018-06-21T19:32:40.439Z,101334.61
2018-06-21T19:35:07.383Z,101330.45
2018-06-21T19:37:34.291Z,101327.28
2018-06-21T19:40:01.227Z,101334.16
2018-06-21T19:42:28.158Z,101329.22
2018-06-21T19:44:55.091Z,101328.95
2018-06-21T19:47:22.011Z,101335.53
2018-06-21T19:49:48.919Z,101335.44
2018-06-21T19:52:15.851Z,101331.78
2018-06-21T19:54:42.779Z,101330.25
2018-06-21T19:57:09.689Z,101332.45
2018-06-21T19:59:36.607Z,101335.88
2018-06-21T20:02:03.581Z,101333.30
2018-06-21T20:04:30.739Z,101333.81
2018-06-21T20:06:57.663Z,101327.34
2018-06-21T20:09:24.639Z,101332.13
2018-06-21T20:11:51.563Z,101335.38
2018-06-21T20:14:18.536Z,101337.54
2018-06-21T20:16:45.464Z,101335.50
2018-06-21T20:19:17.062Z,101332.22
2018-06-21T20:21:44.238Z,101336.58
2018-06-21T20:24:11.194Z,101344.03
2018-06-21T20:26:38.131Z,101339.87
2018-06-21T20:29:09.755Z,101337.75
2018-06-21T20:31:36.656Z,101336.91
2018-06-21T20:34:03.628Z,101330.55
2018-06-21T20:36:30.567Z,101334.49
2018-06-21T20:38:57.491Z,101329.97
2018-06-21T20:41:24.415Z,101329.75
2018-06-21T20:43:51.738Z,101323.58
2018-06-21T20:46:18.745Z,101328.87
2018-06-21T20:48:45.823Z,101335.02
2018-06-21T20:51:13.091Z,101315.48
2018-06-21T20:53:40.019Z,101323.29
2018-06-21T20:56:06.940Z,101327.38
2018-06-21T20:58:33.882Z,101327.08
2018-06-21T21:01:00.867Z,101316.34
2018-06-21T21:03:27.786Z,101314.33
2018-06-21T21:05:54.718Z,101321.05
2018-06-21T21:08:21.615Z,101317.80
2018-06-21T21:10:48.567Z,101317.33
2018-06-21T21:13:15.499Z,101316.02
2018-06-21T21:15:42.415Z,101312.28
2018-06-21T21:18:09.335Z,101317.04
2018-06-21T21:20:36.266Z,101320.77
2018-06-21T21:23:03.233Z,101317.55
2018-06-21T21:25:30.127Z,101318.86
2018-06-21T21:27:57.076Z,101324.95
2018-06-21T21:30:23.983Z,101317.88
2018-06-21T21:32:50.952Z,101319.81
2018-06-21T21:35:17.858Z,101317.18
2018-06-21T21:37:44.775Z,101312.40
2018-06-21T21:40:11.688Z,101311.20
2018-06-21T21:42:38.827Z,101315.03
2018-06-21T21:45:05.907Z,101311.78
2018-06-21T21:47:32.831Z,101308.56
2018-06-21T21:49:59.751Z,101309.66
2018-06-21T21:52:26.703Z,101306.22
2018-06-21T21:54:53.638Z,101297.28
2018-06-21T21:57:20.654Z,101301.00
2018-06-21T21:59:48.382Z,101301.73
2018-06-21T22:02:15.675Z,101300.12
2018-06-21T22:04:42.771Z,101293.45
2018-06-21T22:07:09.700Z,101294.54
2018-06-21T22:09:36.612Z,101293.34
2018-06-21T22:12:03.556Z,101289.90
2018-06-21T22:14:30.471Z,101287.13
2018-06-21T22:16:57.399Z,101284.65
2018-06-21T22:19:24.290Z,101279.87
2018-06-21T22:21:51.203Z,101285.13
2018-06-21T22:24:18.108Z,101279.42
2018-06-21T22:26:45.044Z,101275.98
2018-06-21T22:29:12.055Z,101271.60
2018-06-21T22:31:38.975Z,101270.02
2018-06-21T22:34:05.923Z,101263.84
2018-06-21T22:36:32.853Z,101274.26
2018-06-21T22:38:59.751Z,101272.11
2018-06-21T22:41:26.687Z,101272.95
2018-06-21T22:43:53.579Z,101276.05
2018-06-21T22:46:20.538Z,101264.00
2018-06-21T22:48:47.484Z,101260.17
2018-06-21T22:51:14.396Z,101260.54
2018-06-21T22:53:41.467Z,101258.50
2018-06-21T22:56:08.407Z,101260.91
2018-06-21T22:58:35.331Z,101261.85
2018-06-21T23:01:02.323Z,101258.61
2018-06-21T23:03:29.316Z,101262.44
2018-06-21T23:05:56.401Z,101255.90
2018-06-21T23:08:23.334Z,101260.81
2018-06-21T23:10:50.283Z,101254.30
2018-06-21T23:13:17.477Z,101251.70
2018-06-21T23:15:45.141Z,101254.26
2018-06-21T23:18:19.772Z,101251.27
2018-06-21T23:20:46.815Z,101254.36
2018-06-21T23:23:13.755Z,101250.70
2018-06-21T23:25:40.687Z,101249.59
2018-06-21T23:28:07.747Z,101245.88
2018-06-21T23:30:34.785Z,101238.84
2018-06-21T23:33:01.733Z,101243.03
2018-06-21T23:35:28.647Z,101244.39
2018-06-21T23:37:55.595Z,101240.00
2018-06-21T23:40:22.507Z,101237.48
2018-06-21T23:42:49.655Z,101240.23
2018-06-21T23:45:16.555Z,101238.09
2018-06-21T23:47:43.602Z,101229.27
2018-06-21T23:50:10.567Z,101235.59
2018-06-21T23:52:37.631Z,101223.41
2018-06-21T23:55:04.783Z,101222.09
2018-06-21T23:57:32.398Z,101225.67
2018-06-21T23:59:59.356Z,101225.31
